Time;durP1;ratioP1;P1;durP2;ratioP2;P2;SDS_P1;SDS_P2;PMS_P1;PMS_P2;Temp;Humidity;BMP_temperature;BMP_pressure;BME280_temperature;BME280_humidity;BME280_pressure;Samples;Min_cycle;Max_cycle;Signal;HPM_P1;HPM_P2
2021/12/14 00:01:26;;;;;;;;;;;7.80;99.90;;;;;;4937458;29;20066;-90
2021/12/14 00:04:05;;;;;;;15.40;10.20;;;8.00;99.90;;;;;;4937384;29;19923;-89
2021/12/14 00:06:31;;;;;;;15.90;10.10;;;7.80;99.90;;;;;;4936098;29;20067;-89
2021/12/14 00:08:59;;;;;;;15.23;9.57;;;7.60;99.90;;;;;;4936737;29;20051;-90
2021/12/14 00:11:53;;;;;;;16.10;10.10;;;8.00;99.90;;;;;;4937475;29;20098;-88
2021/12/14 00:16:58;;;;;;;16.63;10.17;;;8.00;99.90;;;;;;4937414;29;20087;-90
2021/12/14 00:19:33;;;;;;;17.30;9.60;;;8.10;99.90;;;;;;4937128;29;20104;-89
2021/12/14 00:22:37;;;;;;;16.87;10.50;;;7.60;99.90;;;;;;4940476;29;20125;-89
2021/12/14 00:25:09;;;;;;;15.50;10.10;;;7.90;99.90;;;;;;4938154;29;20052;-89
2021/12/14 00:27:35;;;;;;;17.50;10.50;;;7.70;99.90;;;;;;4937263;29;20559;-89
2021/12/14 00:30:07;;;;;;;17.70;10.03;;;8.10;99.90;;;;;;4936414;29;20055;-89
2021/12/14 00:32:42;;;;;;;20.00;10.17;;;7.70;99.90;;;;;;4937013;29;20493;-90
2021/12/14 00:35:13;;;;;;;17.37;10.17;;;7.50;99.90;;;;;;4936376;29;20105;-89
2021/12/14 00:37:45;;;;;;;14.90;9.87;;;8.40;99.90;;;;;;4937266;29;20110;-89
2021/12/14 00:40:20;;;;;;;16.77;10.50;;;8.70;99.90;;;;;;4941042;29;20086;-89
2021/12/14 00:42:47;;;;;;;16.30;10.77;;;8.30;99.90;;;;;;4954197;29;20035;-88
2021/12/14 00:45:14;;;;;;;17.47;10.70;;;8.00;99.90;;;;;;4961270;29;20024;-88
2021/12/14 00:47:39;;;;;;;18.40;11.33;;;7.60;99.90;;;;;;4960413;29;20034;-89
2021/12/14 00:50:07;;;;;;;18.43;11.73;;;7.90;99.90;;;;;;4941193;29;20488;-89
2021/12/14 00:52:33;;;;;;;18.37;11.63;;;7.70;99.90;;;;;;4937054;29;20055;-89
2021/12/14 00:54:59;;;;;;;17.80;11.63;;;8.20;99.90;;;;;;4936428;29;20047;-89
2021/12/14 00:57:25;;;;;;;20.47;11.97;;;7.60;99.90;;;;;;4935879;29;20098;-90
2021/12/14 00:59:50;;;;;;;17.93;12.23;;;7.40;99.90;;;;;;4936737;29;20147;-88
2021/12/14 01:02:20;;;;;;;18.97;11.77;;;8.40;99.90;;;;;;4936467;29;20056;-89
2021/12/14 01:04:51;;;;;;;18.60;12.40;;;8.30;99.90;;;;;;4935630;29;20508;-89
2021/12/14 01:07:20;;;;;;;19.70;11.97;;;8.30;99.90;;;;;;4936120;29;20488;-88
2021/12/14 01:09:49;;;;;;;21.07;12.57;;;7.20;99.90;;;;;;4936511;29;20055;-88
2021/12/14 01:12:29;;;;;;;19.40;12.73;;;7.90;99.90;;;;;;4936851;29;20036;-90
2021/12/14 01:15:12;;;;;;;20.73;12.77;;;7.80;99.90;;;;;;4936602;29;20048;-89
2021/12/14 01:17:54;;;;;;;19.13;12.27;;;8.30;99.90;;;;;;4936240;29;20396;-89
2021/12/14 01:20:21;;;;;;;20.47;13.30;;;7.80;99.90;;;;;;4936207;29;20044;-89
2021/12/14 01:22:58;;;;;;;23.37;12.77;;;8.20;99.90;;;;;;4936131;29;20072;-89
2021/12/14 01:25:36;;;;;;;20.37;12.67;;;7.90;99.90;;;;;;4935673;29;20445;-89
2021/12/14 01:28:09;;;;;;;21.17;12.33;;;7.80;99.90;;;;;;4935331;29;20052;-89
2021/12/14 01:30:48;;;;;;;20.37;12.27;;;8.40;99.90;;;;;;4935401;29;20062;-89
2021/12/14 01:33:15;;;;;;;19.43;12.53;;;8.30;99.90;;;;;;4935021;29;20051;-89
2021/12/14 01:35:45;;;;;;;19.33;12.80;;;7.70;99.90;;;;;;4935462;29;20465;-88
2021/12/14 01:40:58;;;;;;;21.23;12.60;;;7.90;99.90;;;;;;4935748;29;20052;-89
2021/12/14 01:43:38;;;;;;;19.60;12.03;;;8.30;99.90;;;;;;4936025;29;20491;-88
2021/12/14 01:46:28;;;;;;;20.87;12.50;;;7.70;99.90;;;;;;4935151;29;20516;-89
2021/12/14 01:48:55;;;;;;;18.90;12.30;;;7.70;99.90;;;;;;4935108;29;20054;-89
2021/12/14 01:51:21;;;;;;;18.37;12.37;;;7.10;99.90;;;;;;4936435;29;20077;-89
2021/12/14 01:53:50;;;;;;;19.83;12.37;;;7.60;99.90;;;;;;4935897;29;20052;-89
2021/12/14 01:56:22;;;;;;;19.70;12.43;;;8.40;99.90;;;;;;4935141;29;20050;-89
2021/12/14 01:59:00;;;;;;;19.07;11.50;;;7.50;99.90;;;;;;4935391;29;20047;-89
2021/12/14 02:01:36;;;;;;;19.27;12.00;;;7.70;99.90;;;;;;4936044;29;20051;-89
2021/12/14 02:04:10;;;;;;;18.27;11.73;;;7.90;99.90;;;;;;4935405;29;20043;-89
2021/12/14 02:06:36;;;;;;;18.87;12.17;;;7.70;99.90;;;;;;4934644;29;20060;-89
2021/12/14 02:09:08;;;;;;;19.73;11.93;;;8.50;99.90;;;;;;4939156;29;20087;-88
2021/12/14 02:11:45;;;;;;;18.73;11.83;;;8.30;99.90;;;;;;4935535;29;20412;-89
2021/12/14 02:14:11;;;;;;;18.97;12.50;;;7.60;99.90;;;;;;4934999;29;20055;-89
2021/12/14 02:16:39;;;;;;;20.50;12.93;;;8.10;99.90;;;;;;4936473;29;20464;-89
2021/12/14 02:19:10;;;;;;;18.80;12.40;;;7.50;99.90;;;;;;4939526;29;20063;-89
2021/12/14 02:21:37;;;;;;;20.07;12.57;;;7.50;99.90;;;;;;4935283;29;20036;-89
2021/12/14 02:24:05;;;;;;;22.17;13.67;;;8.00;99.90;;;;;;4934246;29;20075;-89
2021/12/14 02:26:36;;;;;;;21.37;13.40;;;7.70;99.90;;;;;;4934892;29;20059;-88
2021/12/14 02:29:24;;;;;;;20.93;12.87;;;8.10;99.90;;;;;;4934054;29;20051;-89
2021/12/14 02:31:52;;;;;;;21.90;14.53;;;7.70;99.90;;;;;;4935304;29;20055;-89
2021/12/14 02:34:18;;;;;;;21.13;13.43;;;8.30;99.90;;;;;;4933332;29;20074;-88
2021/12/14 02:36:47;;;;;;;20.70;13.23;;;7.30;99.90;;;;;;4936385;29;20076;-89
2021/12/14 02:42:12;;;;;;;21.83;13.53;;;6.50;99.90;;;;;;4934059;29;20047;-88
2021/12/14 02:44:38;;;;;;;21.50;13.87;;;7.70;99.90;;;;;;4935465;29;20091;-88
2021/12/14 02:47:10;;;;;;;23.00;14.83;;;7.60;99.90;;;;;;4935214;29;20481;-89
2021/12/14 02:49:38;;;;;;;22.47;14.33;;;8.40;99.90;;;;;;4934065;29;20056;-88
2021/12/14 02:52:08;;;;;;;23.67;14.97;;;7.90;99.90;;;;;;4934877;29;20536;-88
2021/12/14 02:54:48;;;;;;;23.37;14.07;;;8.30;99.90;;;;;;4934870;29;20044;-88
2021/12/14 02:57:21;;;;;;;21.47;13.93;;;7.70;99.90;;;;;;4934295;29;20126;-89
2021/12/14 02:59:49;;;;;;;23.03;14.83;;;7.50;99.90;;;;;;4935826;29;20123;-88
2021/12/14 03:02:18;;;;;;;23.63;14.50;;;7.60;99.90;;;;;;4930464;29;20527;-89
2021/12/14 03:04:51;;;;;;;25.80;14.77;;;7.90;99.90;;;;;;4914651;29;20040;-90
2021/12/14 03:07:21;;;;;;;24.00;14.50;;;8.10;99.90;;;;;;4917500;29;20056;-88
2021/12/14 03:12:31;;;;;;;23.80;15.68;;;7.50;99.90;;;;;;4919626;29;20114;-88
2021/12/14 03:15:15;;;;;;;25.63;15.50;;;7.70;99.90;;;;;;4919384;29;20048;-89
2021/12/14 03:17:43;;;;;;;23.75;15.43;;;7.70;99.90;;;;;;4918476;29;20052;-88
2021/12/14 03:20:41;;;;;;;25.63;15.50;;;7.70;99.90;;;;;;4919397;29;20449;-89
2021/12/14 03:23:20;;;;;;;24.67;15.27;;;7.70;99.90;;;;;;4919776;29;20102;-88
2021/12/14 03:25:52;;;;;;;25.47;15.13;;;7.30;99.90;;;;;;4934290;29;20052;-89
2021/12/14 03:28:29;;;;;;;26.37;16.43;;;8.40;99.90;;;;;;4918829;29;20052;-89
2021/12/14 03:31:09;;;;;;;26.00;15.80;;;7.80;99.90;;;;;;4918371;29;20091;-89
2021/12/14 03:34:06;;;;;;;25.07;16.00;;;7.70;99.90;;;;;;4918859;29;20059;-89
2021/12/14 03:36:39;;;;;;;25.67;16.20;;;7.60;99.90;;;;;;4920067;29;20466;-89
2021/12/14 03:39:11;;;;;;;28.20;15.93;;;8.30;99.90;;;;;;4918254;29;20131;-88
2021/12/14 03:41:58;;;;;;;24.93;15.80;;;8.30;99.90;;;;;;4918957;29;20086;-89
2021/12/14 03:44:45;;;;;;;28.57;17.27;;;8.40;99.90;;;;;;4919182;29;20549;-89
2021/12/14 03:47:38;;;;;;;28.47;17.43;;;7.60;99.90;;;;;;4934487;29;20382;-89
2021/12/14 03:50:12;;;;;;;28.70;17.00;;;7.60;99.90;;;;;;4918123;29;20059;-89
2021/12/14 03:52:39;;;;;;;;;;;7.60;99.90;;;;;;4918579;29;20048;-89
2021/12/14 03:55:16;;;;;;;28.60;16.83;;;7.60;99.90;;;;;;4918779;29;19927;-89
2021/12/14 03:57:46;;;;;;;27.50;17.10;;;7.60;99.90;;;;;;4919422;29;20087;-88
2021/12/14 04:00:22;;;;;;;27.63;17.67;;;7.40;99.90;;;;;;4917920;29;20058;-89
2021/12/14 04:02:51;;;;;;;30.67;18.47;;;7.60;99.90;;;;;;4923045;29;20016;-89
2021/12/14 04:05:16;;;;;;;28.83;18.23;;;7.40;99.90;;;;;;4919812;29;20044;-89
2021/12/14 04:07:44;;;;;;;31.23;19.07;;;8.20;99.90;;;;;;4917791;29;20059;-89
2021/12/14 04:10:22;;;;;;;29.50;19.30;;;7.30;99.90;;;;;;4917882;29;20052;-88
2021/12/14 04:12:48;;;;;;;32.33;19.73;;;7.50;99.90;;;;;;4921480;29;20044;-87
2021/12/14 04:15:14;;;;;;;31.10;18.53;;;6.80;99.90;;;;;;4920425;29;20052;-88
2021/12/14 04:17:40;;;;;;;29.97;18.67;;;7.40;99.90;;;;;;4917826;29;20489;-89
2021/12/14 04:20:15;;;;;;;32.40;19.30;;;8.10;99.90;;;;;;4917075;29;20226;-87
2021/12/14 04:22:48;;;;;;;29.90;19.07;;;7.60;99.90;;;;;;4918424;29;20063;-88
2021/12/14 04:25:16;;;;;;;35.73;20.60;;;7.80;99.90;;;;;;4933926;29;20052;-89
2021/12/14 04:27:53;;;;;;;31.50;19.80;;;7.40;99.90;;;;;;4917354;29;20052;-89
2021/12/14 04:30:21;;;;;;;33.87;20.20;;;7.60;99.90;;;;;;4917768;29;20052;-88
2021/12/14 04:32:53;;;;;;;33.40;21.40;;;7.50;99.90;;;;;;4918699;29;20040;-87
2021/12/14 04:35:19;;;;;;;32.97;20.83;;;8.40;99.90;;;;;;4917008;29;20059;-88
2021/12/14 04:37:56;;;;;;;32.73;21.07;;;7.40;99.90;;;;;;4918238;29;20044;-89
2021/12/14 04:54:22;;;;;;;34.03;21.43;;;8.10;99.90;;;;;;4941199;29;20064;-88
2021/12/14 04:56:54;;;;;;;33.77;22.40;;;7.30;99.90;;;;;;4937165;29;20059;-88
2021/12/14 04:59:24;;;;;;;34.30;21.43;;;7.80;99.90;;;;;;4926943;29;20048;-89
2021/12/14 05:01:55;;;;;;;38.07;22.33;;;7.30;99.90;;;;;;4930377;29;20062;-86
2021/12/14 05:04:24;;;;;;;38.43;22.70;;;7.30;99.90;;;;;;4935329;29;20056;-89
2021/12/14 05:07:02;;;;;;;34.67;22.43;;;7.30;99.90;;;;;;4933876;29;20066;-88
2021/12/14 05:09:36;;;;;;;36.23;22.87;;;7.00;99.90;;;;;;4935763;29;20086;-88
2021/12/14 05:12:17;;;;;;;34.17;21.87;;;7.10;99.90;;;;;;4935950;29;20236;-89
2021/12/14 05:14:45;;;;;;;36.27;21.97;;;7.10;99.90;;;;;;4936039;29;20051;-88
2021/12/14 05:17:15;;;;;;;38.30;23.67;;;8.20;99.90;;;;;;4934861;29;20523;-88
2021/12/14 05:19:42;;;;;;;35.90;22.53;;;7.20;99.90;;;;;;4937043;29;20158;-89
2021/12/14 05:22:12;;;;;;;37.20;22.57;;;8.10;99.90;;;;;;4935614;29;20548;-88
2021/12/14 05:24:42;;;;;;;40.73;23.40;;;7.30;99.90;;;;;;4936646;29;20504;-88
2021/12/14 05:27:11;;;;;;;37.80;23.97;;;7.10;99.90;;;;;;4936911;29;20043;-89
2021/12/14 05:29:40;;;;;;;42.47;24.87;;;7.20;99.90;;;;;;4935545;29;20059;-89
2021/12/14 05:32:07;;;;;;;39.60;23.03;;;7.60;99.90;;;;;;4935963;29;20166;-88
2021/12/14 05:34:34;;;;;;;38.27;24.07;;;7.30;99.90;;;;;;4936051;29;20087;-88
2021/12/14 05:37:00;;;;;;;39.63;24.73;;;7.20;99.90;;;;;;4935706;29;20044;-88
2021/12/14 05:39:46;;;;;;;40.47;24.93;;;8.10;99.90;;;;;;4940849;29;20405;-88
2021/12/14 05:45:16;;;;;;;42.10;24.43;;;7.50;99.90;;;;;;4935006;29;20048;-89
2021/12/14 05:47:49;;;;;;;39.57;24.23;;;7.20;99.90;;;;;;4935452;29;20078;-89
2021/12/14 05:50:17;;;;;;;37.80;24.10;;;7.40;99.90;;;;;;4935892;29;20043;-89
2021/12/14 05:52:43;;;;;;;40.80;24.43;;;7.80;99.90;;;;;;4934651;29;20175;-89
2021/12/14 05:55:10;;;;;;;38.13;24.03;;;7.70;99.90;;;;;;4935793;29;20134;-89
2021/12/14 05:57:36;;;;;;;40.07;25.50;;;7.30;99.90;;;;;;4936146;29;20047;-88
2021/12/14 06:00:05;;;;;;;38.97;24.70;;;7.60;99.90;;;;;;4935784;29;20575;-89
2021/12/14 06:02:30;;;;;;;39.27;24.83;;;7.40;99.90;;;;;;4935673;29;20047;-88
2021/12/14 06:04:56;;;;;;;39.00;25.23;;;8.20;99.90;;;;;;4936475;29;20075;-87
2021/12/14 06:07:25;;;;;;;37.97;23.67;;;7.70;99.90;;;;;;4937891;29;20496;-89
2021/12/14 06:09:52;;;;;;;41.73;26.20;;;8.00;99.90;;;;;;4943224;29;20058;-89
2021/12/14 06:12:23;;;;;;;39.87;24.23;;;7.50;99.90;;;;;;4935550;29;20054;-89
2021/12/14 06:14:54;;;;;;;41.70;26.27;;;8.00;99.90;;;;;;4934661;29;20075;-88
2021/12/14 06:17:29;;;;;;;43.03;26.73;;;7.90;99.90;;;;;;4934965;29;20478;-89
2021/12/14 06:20:11;;;;;;;42.20;26.70;;;7.30;99.90;;;;;;4933801;29;20400;-88
2021/12/14 06:22:40;;;;;;;44.93;26.13;;;7.30;99.90;;;;;;4935217;29;20119;-88
2021/12/14 06:25:16;;;;;;;42.43;26.27;;;7.40;99.90;;;;;;4935279;29;20051;-89
2021/12/14 06:27:45;;;;;;;44.83;27.07;;;7.40;99.90;;;;;;4934682;29;20048;-89
2021/12/14 06:30:15;;;;;;;45.33;26.53;;;7.50;99.90;;;;;;4934947;29;20058;-88
2021/12/14 06:32:46;;;;;;;48.47;27.87;;;8.00;99.90;;;;;;4934707;29;20047;-89
2021/12/14 06:35:30;;;;;;;46.30;27.03;;;6.50;99.90;;;;;;4934121;29;20048;-89
2021/12/14 06:40:58;;;;;;;48.50;28.70;;;7.40;99.90;;;;;;4937315;29;20556;-88
2021/12/14 06:43:30;;;;;;;48.17;28.60;;;7.40;99.90;;;;;;4938822;29;20115;-89
2021/12/14 06:46:05;;;;;;;49.17;28.83;;;7.40;99.90;;;;;;4938598;29;20095;-88
2021/12/14 06:48:38;;;;;;;51.80;28.70;;;7.80;99.90;;;;;;4939273;29;20416;-88
2021/12/14 06:51:09;;;;;;;49.60;29.23;;;8.00;99.90;;;;;;4938644;29;20396;-89
2021/12/14 06:53:35;;;;;;;51.47;29.67;;;7.20;99.90;;;;;;4938672;29;20488;-88
2021/12/14 06:56:04;;;;;;;55.80;31.63;;;8.10;99.90;;;;;;4937849;29;20559;-87
2021/12/14 06:58:38;;;;;;;58.67;32.60;;;7.40;99.90;;;;;;4938935;29;20055;-89
2021/12/14 07:01:14;;;;;;;54.67;30.77;;;8.20;99.90;;;;;;4938525;29;20500;-88
2021/12/14 07:03:53;;;;;;;55.90;32.37;;;8.30;99.90;;;;;;4937920;29;20500;-88
2021/12/14 07:06:38;;;;;;;55.77;29.60;;;7.30;99.90;;;;;;4938391;29;20064;-88
2021/12/14 07:09:17;;;;;;;56.80;31.73;;;7.40;99.90;;;;;;4920786;29;20098;-89
2021/12/14 07:11:47;;;;;;;57.23;32.13;;;7.40;99.90;;;;;;4921434;29;20412;-89
2021/12/14 07:14:31;;;;;;;57.63;31.93;;;6.30;99.90;;;;;;4922992;29;20051;-86
2021/12/14 07:17:07;;;;;;;60.33;33.75;;;7.40;99.90;;;;;;4937780;29;20052;-82
2021/12/14 07:19:55;;;;;;;58.10;32.17;;;7.40;99.90;;;;;;4921645;29;20052;-83
2021/12/14 07:22:25;;;;;;;64.00;32.93;;;7.40;99.90;;;;;;4921237;29;20139;-83
2021/12/14 07:25:09;;;;;;;63.07;34.23;;;7.40;99.90;;;;;;4937156;29;20516;-82
2021/12/14 07:28:00;;;;;;;61.00;33.23;;;7.40;99.90;;;;;;4921270;29;20047;-82
2021/12/14 07:30:25;;;;;;;58.60;32.60;;;7.40;99.90;;;;;;4936593;29;20066;-82
2021/12/14 07:33:02;;;;;;;59.23;32.73;;;7.40;99.90;;;;;;4920719;29;20043;-82
2021/12/14 07:35:46;;;;;;;64.03;34.47;;;7.40;99.90;;;;;;4920746;29;20058;-81
2021/12/14 07:38:32;;;;;;;59.60;33.37;;;7.40;99.90;;;;;;4920866;29;20051;-82
2021/12/14 07:41:10;;;;;;;63.53;33.53;;;7.40;99.90;;;;;;4937798;29;20099;-83
2021/12/14 07:43:43;;;;;;;62.23;34.73;;;7.50;99.90;;;;;;4938138;29;20052;-81
2021/12/14 07:46:25;;;;;;;58.27;33.50;;;7.40;99.90;;;;;;4937782;29;20066;-80
2021/12/14 07:48:56;;;;;;;64.20;34.13;;;7.40;99.90;;;;;;4920588;29;20667;-81
2021/12/14 07:51:24;;;;;;;59.80;33.70;;;7.50;99.90;;;;;;4919856;29;20048;-81
2021/12/14 07:53:54;;;;;;;64.67;34.00;;;7.50;99.90;;;;;;4919649;29;20045;-81
2021/12/14 07:56:37;;;;;;;65.87;34.40;;;7.50;99.90;;;;;;4937421;29;20088;-80
2021/12/14 07:59:18;;;;;;;63.10;35.90;;;7.50;99.90;;;;;;4950959;29;20047;-80
2021/12/14 08:01:46;;;;;;;61.47;33.07;;;7.50;99.90;;;;;;4925588;29;20457;-80
2021/12/14 08:04:12;;;;;;;58.53;32.23;;;7.50;99.90;;;;;;4920204;29;20497;-80
2021/12/14 08:06:56;;;;;;;58.70;33.77;;;7.50;99.90;;;;;;4927505;29;20066;-81
2021/12/14 08:09:48;;;;;;;53.72;32.25;;;7.50;99.90;;;;;;4936325;29;20580;-81
2021/12/14 08:12:27;;;;;;;55.83;32.17;;;7.60;99.90;;;;;;4936640;29;20132;-80
2021/12/14 08:15:19;;;;;;;57.53;33.33;;;7.50;99.90;;;;;;4937402;29;20118;-80
2021/12/14 08:17:46;;;;;;;61.47;34.83;;;7.60;99.90;;;;;;4933453;29;20498;-81
2021/12/14 08:20:21;;;;;;;59.00;34.43;;;7.60;99.90;;;;;;4936817;29;20090;-80
2021/12/14 08:22:47;;;;;;;56.57;33.23;;;7.60;99.90;;;;;;4935754;29;20075;-81
2021/12/14 08:25:21;;;;;;;56.63;32.33;;;7.60;99.90;;;;;;4935997;29;20086;-81
2021/12/14 08:27:47;;;;;;;57.10;31.97;;;7.70;99.90;;;;;;4936409;29;20400;-81
2021/12/14 08:30:15;;;;;;;58.30;34.37;;;7.70;99.90;;;;;;4937578;29;20048;-81
2021/12/14 08:32:41;;;;;;;82.53;50.13;;;7.70;99.90;;;;;;4935735;29;20047;-81
2021/12/14 08:35:12;;;;;;;61.20;36.63;;;7.70;99.90;;;;;;4936375;29;20047;-81
2021/12/14 08:37:53;;;;;;;75.67;42.07;;;7.70;99.90;;;;;;4935852;29;20090;-81
2021/12/14 08:40:31;;;;;;;63.10;35.23;;;7.80;99.90;;;;;;4936437;29;20040;-81
2021/12/14 08:43:05;;;;;;;66.57;36.87;;;7.70;99.90;;;;;;4937091;29;20122;-81
2021/12/14 08:45:34;;;;;;;70.45;37.95;;;7.70;99.90;;;;;;4935871;29;20051;-81
2021/12/14 08:48:03;;;;;;;100.60;51.80;;;7.70;99.90;;;;;;4934910;29;20717;-81
2021/12/14 08:50:55;;;;;;;72.53;38.27;;;7.80;99.90;;;;;;4935430;29;20047;-81
2021/12/14 08:53:24;;;;;;;82.93;43.80;;;7.80;99.90;;;;;;4935248;29;20063;-81
2021/12/14 08:55:54;;;;;;;72.07;35.40;;;7.70;99.90;;;;;;4935814;29;20127;-81
2021/12/14 08:58:21;;;;;;;87.00;43.70;;;7.70;99.90;;;;;;4935776;29;20071;-81
2021/12/14 09:00:52;;;;;;;81.53;38.33;;;7.70;99.90;;;;;;4935330;29;20481;-81
2021/12/14 09:03:31;;;;;;;74.80;35.63;;;7.70;99.90;;;;;;4936137;29;20050;-81
2021/12/14 09:05:57;;;;;;;76.70;38.10;;;7.70;99.90;;;;;;4936082;29;20040;-81
2021/12/14 09:08:23;;;;;;;73.73;36.77;;;7.70;99.90;;;;;;4934786;29;20048;-81
2021/12/14 09:10:51;;;;;;;72.93;36.57;;;7.70;99.90;;;;;;4935966;29;20051;-81
2021/12/14 09:13:17;;;;;;;75.20;37.27;;;7.70;99.90;;;;;;4936270;29;20457;-81
2021/12/14 09:16:09;;;;;;;70.83;36.27;;;7.70;99.90;;;;;;4933767;29;20135;-82
2021/12/14 09:18:40;;;;;;;75.47;39.50;;;7.70;99.90;;;;;;4935490;29;20036;-84
2021/12/14 09:21:17;;;;;;;84.97;44.43;;;7.70;99.90;;;;;;4934890;29;20493;-82
2021/12/14 09:23:46;;;;;;;71.37;37.27;;;7.70;99.90;;;;;;4933861;29;20043;-84
2021/12/14 09:26:17;;;;;;;69.27;37.53;;;7.70;99.90;;;;;;4934969;29;20094;-82
2021/12/14 09:28:43;;;;;;;79.03;39.87;;;7.60;99.90;;;;;;4934730;29;20047;-82
2021/12/14 09:31:13;;;;;;;67.87;38.23;;;7.70;99.90;;;;;;4934279;29;20499;-83
2021/12/14 09:33:41;;;;;;;73.63;39.67;;;8.30;99.90;;;;;;4934761;29;20051;-83
2021/12/14 09:36:12;;;;;;;64.60;36.17;;;7.80;99.90;;;;;;4934960;29;20436;-82
2021/12/14 09:38:41;;;;;;;66.27;35.10;;;7.80;99.90;;;;;;4934463;29;20067;-83
2021/12/14 09:41:11;;;;;;;73.20;42.00;;;7.80;99.90;;;;;;4934840;29;20043;-83
2021/12/14 09:43:38;;;;;;;64.53;36.73;;;7.90;99.90;;;;;;4934407;29;20395;-82
2021/12/14 09:46:06;;;;;;;78.27;41.73;;;7.90;99.90;;;;;;4934407;29;20408;-84
2021/12/14 09:48:37;;;;;;;65.10;37.10;;;7.90;99.90;;;;;;4936282;29;20130;-85
2021/12/14 09:51:08;;;;;;;61.80;37.73;;;7.90;99.90;;;;;;4935102;29;20052;-82
2021/12/14 09:53:39;;;;;;;57.60;33.10;;;7.90;99.90;;;;;;4935959;29;20040;-82
2021/12/14 09:56:09;;;;;;;53.23;31.63;;;7.90;99.90;;;;;;4935833;29;20058;-82
2021/12/14 09:58:40;;;;;;;60.87;35.70;;;7.90;99.90;;;;;;4935529;29;20055;-82
2021/12/14 10:01:35;;;;;;;61.90;35.77;;;8.00;99.90;;;;;;4934384;29;20050;-83
2021/12/14 10:04:05;;;;;;;60.97;33.50;;;8.00;99.90;;;;;;4935710;29;20052;-83
2021/12/14 10:06:32;;;;;;;57.30;33.47;;;8.00;99.90;;;;;;4934761;29;20066;-83
2021/12/14 10:09:04;;;;;;;58.77;34.00;;;8.00;99.90;;;;;;4917957;29;20047;-82
2021/12/14 10:12:03;;;;;;;56.40;34.00;;;8.10;99.90;;;;;;4918171;29;20072;-82
2021/12/14 10:14:36;;;;;;;56.43;33.47;;;8.10;99.90;;;;;;4927589;29;20155;-82
2021/12/14 10:17:05;;;;;;;57.30;33.47;;;8.10;99.90;;;;;;4925293;29;20070;-83
2021/12/14 10:19:32;;;;;;;56.27;34.13;;;8.10;99.90;;;;;;4914561;29;20044;-82
2021/12/14 10:22:05;;;;;;;58.10;34.07;;;8.10;99.90;;;;;;4922942;29;20489;-86
2021/12/14 10:24:32;;;;;;;52.45;33.05;;;8.10;99.90;;;;;;4918669;29;20044;-85
2021/12/14 10:27:08;;;;;;;54.33;32.57;;;8.30;99.90;;;;;;4917270;29;20481;-83
2021/12/14 10:29:35;;;;;;;56.33;32.40;;;8.40;99.90;;;;;;4918351;29;20055;-82
2021/12/14 10:32:12;;;;;;;55.07;32.00;;;9.10;99.90;;;;;;4917817;29;20479;-82
2021/12/14 10:34:45;;;;;;;56.37;32.43;;;8.20;99.90;;;;;;4917750;29;20059;-83
2021/12/14 10:37:19;;;;;;;57.60;33.63;;;8.30;99.90;;;;;;4935334;29;20400;-82
2021/12/14 10:45:19;;;;;;;55.03;32.40;;;8.90;99.90;;;;;;4918337;29;20052;-83
2021/12/14 10:47:45;;;;;;;59.27;33.93;;;8.30;99.90;;;;;;4917213;29;20043;-83
2021/12/14 10:50:14;;;;;;;57.27;32.47;;;8.70;99.90;;;;;;4935114;29;20050;-84
2021/12/14 10:52:43;;;;;;;55.90;32.60;;;8.10;99.90;;;;;;4918168;29;20224;-84
2021/12/14 10:55:14;;;;;;;54.53;32.53;;;8.10;99.90;;;;;;4935039;29;20047;-82
2021/12/14 10:57:40;;;;;;;54.47;31.63;;;8.20;99.90;;;;;;4922110;29;20054;-83
2021/12/14 11:00:17;;;;;;;57.43;32.40;;;7.60;99.90;;;;;;4959271;28;20040;-85
2021/12/14 11:02:49;;;;;;;52.40;31.63;;;8.20;99.90;;;;;;4925330;29;20049;-83
2021/12/14 11:05:18;;;;;;;54.33;31.83;;;8.20;99.90;;;;;;4920066;29;20051;-84
2021/12/14 11:07:47;;;;;;;51.63;30.53;;;8.40;99.90;;;;;;4927684;29;20501;-83
2021/12/14 11:10:24;;;;;;;52.93;32.03;;;8.50;99.90;;;;;;4934225;29;20047;-82
2021/12/14 11:12:55;;;;;;;51.97;31.50;;;8.80;99.90;;;;;;4933643;29;20146;-82
2021/12/14 11:15:28;;;;;;;52.23;32.57;;;9.10;99.90;;;;;;4929955;29;20043;-82
2021/12/14 11:18:09;;;;;;;55.65;32.85;;;8.20;99.90;;;;;;4932365;29;20048;-82
2021/12/14 11:20:38;;;;;;;55.37;31.53;;;8.10;99.90;;;;;;4931783;29;20039;-82
2021/12/14 11:23:25;;;;;;;54.10;31.63;;;8.90;99.90;;;;;;4932136;29;20519;-82
2021/12/14 11:26:11;;;;;;;54.90;32.50;;;8.30;99.90;;;;;;4932971;29;20123;-82
2021/12/14 11:28:47;;;;;;;56.57;33.30;;;8.20;99.90;;;;;;4933683;29;20411;-82
2021/12/14 11:31:28;;;;;;;59.57;33.83;;;8.30;99.90;;;;;;4936951;29;20511;-82
2021/12/14 11:34:11;;;;;;;59.20;32.00;;;8.30;99.90;;;;;;4926344;29;20071;-82
2021/12/14 11:37:03;;;;;;;63.78;34.35;;;8.20;99.90;;;;;;4934642;29;20039;-82
2021/12/14 11:39:44;;;;;;;60.10;32.90;;;8.20;99.90;;;;;;4935965;29;20048;-82
2021/12/14 11:42:24;;;;;;;59.97;32.17;;;8.20;99.90;;;;;;4926100;29;20287;-82
2021/12/14 11:45:11;;;;;;;60.83;32.37;;;8.20;99.90;;;;;;4935477;29;20413;-81
2021/12/14 11:47:46;;;;;;;63.73;33.77;;;7.40;99.90;;;;;;4936258;29;20075;-84
2021/12/14 11:50:33;;;;;;;60.03;33.80;;;8.10;99.90;;;;;;4936271;29;20052;-84
2021/12/14 11:53:18;;;;;;;71.33;36.40;;;8.20;99.90;;;;;;4936296;29;20056;-84
2021/12/14 11:55:47;;;;;;;70.80;36.60;;;8.10;99.90;;;;;;4937282;29;20055;-83
2021/12/14 11:58:18;;;;;;;70.33;36.47;;;8.20;99.90;;;;;;4935949;29;20058;-84
2021/12/14 12:01:10;;;;;;;74.40;35.40;;;8.20;99.90;;;;;;4936145;29;20131;-83
2021/12/14 12:03:56;;;;;;;89.70;43.20;;;8.00;99.90;;;;;;4936289;29;20178;-82
2021/12/14 12:09:28;;;;;;;65.73;35.37;;;8.10;99.90;;;;;;4939543;29;20055;-85
2021/12/14 12:12:03;;;;;;;84.75;40.08;;;8.00;99.90;;;;;;4938994;29;20102;-83
2021/12/14 12:14:40;;;;;;;81.33;40.50;;;8.20;99.90;;;;;;4939436;29;20051;-82
2021/12/14 12:17:46;;;;;;;81.57;38.63;;;8.20;99.90;;;;;;4939392;29;20052;-85
2021/12/14 12:20:20;;;;;;;76.87;35.73;;;8.20;99.90;;;;;;4936702;29;20080;-85
2021/12/14 12:22:52;;;;;;;95.33;47.80;;;8.20;99.90;;;;;;4939215;29;20088;-86
2021/12/14 12:25:32;;;;;;;72.93;36.70;;;8.20;99.90;;;;;;4938395;29;20055;-81
2021/12/14 12:28:05;;;;;;;81.90;45.90;;;8.20;99.90;;;;;;4939121;29;20144;-82
2021/12/14 12:30:44;;;;;;;76.90;38.58;;;8.30;99.90;;;;;;4939087;29;20058;-82
2021/12/14 12:33:50;;;;;;;86.97;45.77;;;8.20;99.90;;;;;;4933100;29;20058;-82
2021/12/14 12:36:18;;;;;;;79.20;38.67;;;8.30;99.90;;;;;;4924136;29;20074;-82
2021/12/14 12:38:55;;;;;;;95.43;53.77;;;8.20;99.90;;;;;;4919133;29;20091;-83
2021/12/14 12:41:33;;;;;;;85.10;37.37;;;8.30;99.90;;;;;;4919350;29;20055;-83
2021/12/14 12:44:08;;;;;;;78.10;43.10;;;8.30;99.90;;;;;;4919924;29;20040;-83
2021/12/14 12:46:39;;;;;;;76.20;36.23;;;8.30;99.90;;;;;;4936399;29;20504;-83
2021/12/14 12:49:09;;;;;;;78.33;34.67;;;8.30;99.90;;;;;;4919463;29;20050;-83
2021/12/14 12:52:12;;;;;;;68.63;33.40;;;8.30;99.90;;;;;;4936847;29;20048;-83
2021/12/14 12:54:41;;;;;;;73.60;41.07;;;8.30;99.90;;;;;;4919168;29;20051;-82
2021/12/14 12:57:27;;;;;;;92.37;48.30;;;8.30;99.90;;;;;;4920076;29;20047;-83
2021/12/14 13:00:09;;;;;;;76.07;33.17;;;8.30;99.90;;;;;;4919340;29;20510;-83
2021/12/14 13:02:48;;;;;;;71.10;33.03;;;8.30;99.90;;;;;;4918993;29;20129;-83
2021/12/14 13:05:17;;;;;;;72.17;32.37;;;8.30;99.90;;;;;;4919532;29;20502;-83
2021/12/14 13:07:48;;;;;;;66.40;30.97;;;8.30;99.90;;;;;;4928809;29;20059;-83
2021/12/14 13:10:22;;;;;;;69.00;30.23;;;8.30;99.90;;;;;;4935318;29;20058;-82
2021/12/14 13:12:54;;;;;;;;;;;8.30;99.90;;;;;;4935557;29;20496;-81
2021/12/14 13:15:46;;;;;;;71.20;34.57;;;8.30;99.90;;;;;;4935971;29;19930;-82
2021/12/14 13:18:42;;;;;;;63.40;29.17;;;8.30;99.90;;;;;;4936512;29;20058;-82
2021/12/14 13:21:17;;;;;;;58.67;27.60;;;8.30;99.90;;;;;;4935389;29;20047;-82
2021/12/14 13:23:51;;;;;;;69.07;28.90;;;8.30;99.90;;;;;;4934673;29;20082;-82
2021/12/14 13:26:33;;;;;;;59.60;27.50;;;8.30;99.90;;;;;;4935257;29;20047;-83
2021/12/14 13:29:12;;;;;;;61.00;28.53;;;8.30;99.90;;;;;;4933985;29;20456;-83
2021/12/14 13:31:37;;;;;;;58.47;26.77;;;8.40;99.90;;;;;;4935263;29;20079;-83
2021/12/14 13:34:28;;;;;;;51.77;24.77;;;8.30;99.90;;;;;;4934091;29;20082;-82
2021/12/14 13:36:54;;;;;;;56.03;26.67;;;8.30;99.90;;;;;;4926315;29;20060;-83
2021/12/14 13:39:23;;;;;;;49.57;24.47;;;8.40;99.90;;;;;;4934785;29;20048;-82
2021/12/14 13:42:03;;;;;;;56.47;27.60;;;8.30;99.90;;;;;;4934693;29;20051;-83
2021/12/14 13:44:32;;;;;;;54.33;24.77;;;8.30;99.90;;;;;;4934881;29;20074;-82
2021/12/14 13:47:00;;;;;;;53.33;25.57;;;8.30;99.90;;;;;;4934975;29;20047;-83
2021/12/14 13:49:27;;;;;;;50.50;24.77;;;8.40;99.90;;;;;;4934072;29;20066;-82
2021/12/14 13:51:54;;;;;;;44.33;22.27;;;8.40;99.90;;;;;;4934870;29;20111;-84